sensor_id;sensor_type;location;lat;lon;timestamp;P1;durP1;ratioP1;P2;durP2;ratioP2
16393;SDS011;8306;51.128;4.476;2024-03-22T00:02:10;35.90;;;31.93;;
16393;SDS011;8306;51.128;4.476;2024-03-22T00:04:37;35.17;;;31.30;;
16393;SDS011;8306;51.128;4.476;2024-03-22T00:07:03;34.13;;;30.97;;
16393;SDS011;8306;51.128;4.476;2024-03-22T00:09:29;35.17;;;30.53;;
16393;SDS011;8306;51.128;4.476;2024-03-22T00:11:56;33.37;;;29.93;;
16393;SDS011;8306;51.128;4.476;2024-03-22T00:14:22;31.77;;;28.53;;
16393;SDS011;8306;51.128;4.476;2024-03-22T00:16:49;31.50;;;28.37;;
16393;SDS011;8306;51.128;4.476;2024-03-22T00:19:15;31.80;;;28.73;;
16393;SDS011;8306;51.128;4.476;2024-03-22T00:21:42;31.00;;;28.10;;
16393;SDS011;8306;51.128;4.476;2024-03-22T00:24:08;30.97;;;28.00;;
16393;SDS011;8306;51.128;4.476;2024-03-22T00:26:35;32.57;;;29.17;;
16393;SDS011;8306;51.128;4.476;2024-03-22T00:29:01;32.23;;;29.00;;
16393;SDS011;8306;51.128;4.476;2024-03-22T00:31:28;30.57;;;27.60;;
16393;SDS011;8306;51.128;4.476;2024-03-22T00:33:54;33.67;;;30.23;;
16393;SDS011;8306;51.128;4.476;2024-03-22T00:36:21;35.03;;;31.30;;
16393;SDS011;8306;51.128;4.476;2024-03-22T00:38:47;34.00;;;30.43;;
16393;SDS011;8306;51.128;4.476;2024-03-22T00:41:14;30.70;;;27.80;;
16393;SDS011;8306;51.128;4.476;2024-03-22T00:43:40;33.10;;;29.60;;
16393;SDS011;8306;51.128;4.476;2024-03-22T00:46:07;33.03;;;29.77;;
16393;SDS011;8306;51.128;4.476;2024-03-22T00:48:33;31.70;;;28.63;;
16393;SDS011;8306;51.128;4.476;2024-03-22T00:51:00;31.90;;;29.03;;
16393;SDS011;8306;51.128;4.476;2024-03-22T00:53:26;32.07;;;28.80;;
16393;SDS011;8306;51.128;4.476;2024-03-22T00:55:53;34.63;;;30.47;;
16393;SDS011;8306;51.128;4.476;2024-03-22T00:58:19;31.83;;;28.40;;
16393;SDS011;8306;51.128;4.476;2024-03-22T01:00:46;31.13;;;28.23;;
16393;SDS011;8306;51.128;4.476;2024-03-22T01:03:12;34.83;;;29.80;;
16393;SDS011;8306;51.128;4.476;2024-03-22T01:05:39;34.47;;;29.10;;
16393;SDS011;8306;51.128;4.476;2024-03-22T01:08:05;32.23;;;28.93;;
16393;SDS011;8306;51.128;4.476;2024-03-22T01:10:32;31.57;;;28.27;;
16393;SDS011;8306;51.128;4.476;2024-03-22T01:12:58;32.30;;;29.00;;
16393;SDS011;8306;51.128;4.476;2024-03-22T01:15:25;30.70;;;27.40;;
16393;SDS011;8306;51.128;4.476;2024-03-22T01:17:52;31.00;;;28.00;;
16393;SDS011;8306;51.128;4.476;2024-03-22T01:20:18;28.70;;;26.17;;
16393;SDS011;8306;51.128;4.476;2024-03-22T01:22:44;30.53;;;27.63;;
16393;SDS011;8306;51.128;4.476;2024-03-22T01:25:11;28.93;;;25.97;;
16393;SDS011;8306;51.128;4.476;2024-03-22T01:27:37;30.37;;;27.37;;
16393;SDS011;8306;51.128;4.476;2024-03-22T01:30:04;30.20;;;27.07;;
16393;SDS011;8306;51.128;4.476;2024-03-22T01:32:31;30.40;;;26.87;;
16393;SDS011;8306;51.128;4.476;2024-03-22T01:34:57;29.73;;;26.67;;
16393;SDS011;8306;51.128;4.476;2024-03-22T01:37:24;30.83;;;27.63;;
16393;SDS011;8306;51.128;4.476;2024-03-22T01:39:50;30.47;;;27.47;;
16393;SDS011;8306;51.128;4.476;2024-03-22T01:42:17;28.97;;;26.37;;
16393;SDS011;8306;51.128;4.476;2024-03-22T01:44:43;30.17;;;26.93;;
16393;SDS011;8306;51.128;4.476;2024-03-22T01:47:10;31.00;;;27.67;;
16393;SDS011;8306;51.128;4.476;2024-03-22T01:49:36;29.83;;;26.70;;
16393;SDS011;8306;51.128;4.476;2024-03-22T01:52:03;31.73;;;28.40;;
16393;SDS011;8306;51.128;4.476;2024-03-22T01:54:29;33.47;;;28.03;;
16393;SDS011;8306;51.128;4.476;2024-03-22T01:56:56;29.77;;;26.77;;
16393;SDS011;8306;51.128;4.476;2024-03-22T01:59:22;29.87;;;27.07;;
16393;SDS011;8306;51.128;4.476;2024-03-22T02:01:49;31.63;;;28.17;;
16393;SDS011;8306;51.128;4.476;2024-03-22T02:04:15;35.23;;;28.67;;
16393;SDS011;8306;51.128;4.476;2024-03-22T02:06:42;31.33;;;28.03;;
16393;SDS011;8306;51.128;4.476;2024-03-22T02:09:08;32.63;;;29.27;;
16393;SDS011;8306;51.128;4.476;2024-03-22T02:11:35;30.30;;;27.47;;
16393;SDS011;8306;51.128;4.476;2024-03-22T02:14:01;31.30;;;27.90;;
16393;SDS011;8306;51.128;4.476;2024-03-22T02:16:27;31.03;;;27.93;;
16393;SDS011;8306;51.128;4.476;2024-03-22T02:18:54;30.73;;;27.63;;
16393;SDS011;8306;51.128;4.476;2024-03-22T02:21:20;28.70;;;26.17;;
16393;SDS011;8306;51.128;4.476;2024-03-22T02:23:47;29.30;;;26.20;;
16393;SDS011;8306;51.128;4.476;2024-03-22T02:26:13;28.13;;;25.37;;
16393;SDS011;8306;51.128;4.476;2024-03-22T02:28:40;27.00;;;24.60;;
16393;SDS011;8306;51.128;4.476;2024-03-22T02:31:06;26.30;;;23.53;;
16393;SDS011;8306;51.128;4.476;2024-03-22T02:33:33;25.80;;;23.70;;
16393;SDS011;8306;51.128;4.476;2024-03-22T02:35:59;26.30;;;23.77;;
16393;SDS011;8306;51.128;4.476;2024-03-22T02:38:26;26.43;;;23.93;;
16393;SDS011;8306;51.128;4.476;2024-03-22T02:40:52;26.67;;;24.23;;
16393;SDS011;8306;51.128;4.476;2024-03-22T02:43:19;23.50;;;21.43;;
16393;SDS011;8306;51.128;4.476;2024-03-22T02:45:45;25.07;;;22.73;;
16393;SDS011;8306;51.128;4.476;2024-03-22T02:48:12;24.23;;;21.93;;
16393;SDS011;8306;51.128;4.476;2024-03-22T02:50:38;24.93;;;22.57;;
16393;SDS011;8306;51.128;4.476;2024-03-22T02:53:05;24.67;;;22.37;;
16393;SDS011;8306;51.128;4.476;2024-03-22T02:55:37;24.00;;;21.87;;
16393;SDS011;8306;51.128;4.476;2024-03-22T02:58:04;24.63;;;22.43;;
16393;SDS011;8306;51.128;4.476;2024-03-22T03:00:31;22.53;;;20.57;;
16393;SDS011;8306;51.128;4.476;2024-03-22T03:02:57;26.33;;;23.17;;
16393;SDS011;8306;51.128;4.476;2024-03-22T03:05:23;23.60;;;21.17;;
16393;SDS011;8306;51.128;4.476;2024-03-22T03:07:50;22.43;;;20.63;;
16393;SDS011;8306;51.128;4.476;2024-03-22T03:10:16;23.63;;;21.43;;
16393;SDS011;8306;51.128;4.476;2024-03-22T03:12:43;22.80;;;20.70;;
16393;SDS011;8306;51.128;4.476;2024-03-22T03:15:09;23.97;;;21.53;;
16393;SDS011;8306;51.128;4.476;2024-03-22T03:17:36;24.10;;;21.87;;
16393;SDS011;8306;51.128;4.476;2024-03-22T03:20:02;23.10;;;21.07;;
16393;SDS011;8306;51.128;4.476;2024-03-22T03:22:29;22.13;;;20.13;;
16393;SDS011;8306;51.128;4.476;2024-03-22T03:24:55;22.03;;;20.10;;
16393;SDS011;8306;51.128;4.476;2024-03-22T03:27:22;23.07;;;20.93;;
16393;SDS011;8306;51.128;4.476;2024-03-22T03:29:48;22.23;;;20.23;;
16393;SDS011;8306;51.128;4.476;2024-03-22T03:32:15;20.63;;;18.93;;
16393;SDS011;8306;51.128;4.476;2024-03-22T03:34:41;20.70;;;18.83;;
16393;SDS011;8306;51.128;4.476;2024-03-22T03:37:08;21.27;;;19.43;;
16393;SDS011;8306;51.128;4.476;2024-03-22T03:39:34;19.97;;;18.20;;
16393;SDS011;8306;51.128;4.476;2024-03-22T03:42:01;20.53;;;18.90;;
16393;SDS011;8306;51.128;4.476;2024-03-22T03:44:27;20.20;;;18.30;;
16393;SDS011;8306;51.128;4.476;2024-03-22T03:46:54;19.10;;;17.27;;
16393;SDS011;8306;51.128;4.476;2024-03-22T03:49:20;18.60;;;17.00;;
16393;SDS011;8306;51.128;4.476;2024-03-22T03:51:47;17.30;;;15.80;;
16393;SDS011;8306;51.128;4.476;2024-03-22T03:54:13;17.30;;;15.67;;
16393;SDS011;8306;51.128;4.476;2024-03-22T03:56:40;19.43;;;17.70;;
16393;SDS011;8306;51.128;4.476;2024-03-22T03:59:06;18.60;;;16.80;;
16393;SDS011;8306;51.128;4.476;2024-03-22T04:01:35;18.87;;;17.17;;
16393;SDS011;8306;51.128;4.476;2024-03-22T04:03:59;18.90;;;17.20;;
16393;SDS011;8306;51.128;4.476;2024-03-22T04:06:26;20.37;;;18.47;;
16393;SDS011;8306;51.128;4.476;2024-03-22T04:08:52;19.47;;;17.63;;
16393;SDS011;8306;51.128;4.476;2024-03-22T04:11:19;20.37;;;18.43;;
16393;SDS011;8306;51.128;4.476;2024-03-22T04:13:45;21.23;;;17.53;;
16393;SDS011;8306;51.128;4.476;2024-03-22T04:16:12;19.77;;;18.00;;
16393;SDS011;8306;51.128;4.476;2024-03-22T04:18:38;19.83;;;18.07;;
16393;SDS011;8306;51.128;4.476;2024-03-22T04:21:05;18.73;;;17.10;;
16393;SDS011;8306;51.128;4.476;2024-03-22T04:23:31;19.57;;;17.77;;
16393;SDS011;8306;51.128;4.476;2024-03-22T04:25:58;19.77;;;17.77;;
16393;SDS011;8306;51.128;4.476;2024-03-22T04:28:27;18.57;;;16.97;;
16393;SDS011;8306;51.128;4.476;2024-03-22T04:30:58;18.93;;;17.07;;
16393;SDS011;8306;51.128;4.476;2024-03-22T04:33:29;18.10;;;16.60;;
16393;SDS011;8306;51.128;4.476;2024-03-22T04:35:55;19.03;;;17.30;;
16393;SDS011;8306;51.128;4.476;2024-03-22T04:38:21;18.20;;;16.60;;
16393;SDS011;8306;51.128;4.476;2024-03-22T04:40:50;15.57;;;14.33;;
16393;SDS011;8306;51.128;4.476;2024-03-22T04:43:17;16.83;;;15.40;;
16393;SDS011;8306;51.128;4.476;2024-03-22T04:45:43;17.10;;;15.53;;
16393;SDS011;8306;51.128;4.476;2024-03-22T04:48:10;15.77;;;14.47;;
16393;SDS011;8306;51.128;4.476;2024-03-22T04:50:36;15.90;;;14.60;;
16393;SDS011;8306;51.128;4.476;2024-03-22T04:53:03;16.80;;;15.30;;
16393;SDS011;8306;51.128;4.476;2024-03-22T04:55:29;15.70;;;14.50;;
16393;SDS011;8306;51.128;4.476;2024-03-22T04:57:56;16.03;;;14.30;;
16393;SDS011;8306;51.128;4.476;2024-03-22T05:00:22;15.70;;;14.43;;
16393;SDS011;8306;51.128;4.476;2024-03-22T05:02:49;16.40;;;15.00;;
16393;SDS011;8306;51.128;4.476;2024-03-22T05:05:15;15.03;;;13.83;;
16393;SDS011;8306;51.128;4.476;2024-03-22T05:07:42;16.77;;;15.27;;
16393;SDS011;8306;51.128;4.476;2024-03-22T05:10:08;16.70;;;15.37;;
16393;SDS011;8306;51.128;4.476;2024-03-22T05:12:35;16.50;;;15.10;;
16393;SDS011;8306;51.128;4.476;2024-03-22T05:15:05;16.27;;;15.07;;
16393;SDS011;8306;51.128;4.476;2024-03-22T05:17:31;16.87;;;15.43;;
16393;SDS011;8306;51.128;4.476;2024-03-22T05:19:58;16.10;;;14.70;;
16393;SDS011;8306;51.128;4.476;2024-03-22T05:22:24;14.97;;;13.77;;
16393;SDS011;8306;51.128;4.476;2024-03-22T05:24:50;15.03;;;13.83;;
16393;SDS011;8306;51.128;4.476;2024-03-22T05:27:17;14.93;;;13.73;;
16393;SDS011;8306;51.128;4.476;2024-03-22T05:29:43;13.67;;;12.67;;
16393;SDS011;8306;51.128;4.476;2024-03-22T05:32:10;14.47;;;13.27;;
16393;SDS011;8306;51.128;4.476;2024-03-22T05:34:36;13.00;;;11.90;;
16393;SDS011;8306;51.128;4.476;2024-03-22T05:37:03;14.50;;;13.33;;
16393;SDS011;8306;51.128;4.476;2024-03-22T05:39:29;14.20;;;13.00;;
16393;SDS011;8306;51.128;4.476;2024-03-22T05:41:56;13.37;;;12.27;;
16393;SDS011;8306;51.128;4.476;2024-03-22T05:44:23;14.17;;;12.80;;
16393;SDS011;8306;51.128;4.476;2024-03-22T05:46:49;13.97;;;12.87;;
16393;SDS011;8306;51.128;4.476;2024-03-22T05:49:16;14.17;;;12.97;;
16393;SDS011;8306;51.128;4.476;2024-03-22T05:51:42;14.60;;;13.50;;
16393;SDS011;8306;51.128;4.476;2024-03-22T05:54:09;13.73;;;12.63;;
16393;SDS011;8306;51.128;4.476;2024-03-22T05:56:35;14.20;;;13.00;;
16393;SDS011;8306;51.128;4.476;2024-03-22T05:59:01;13.87;;;12.87;;
16393;SDS011;8306;51.128;4.476;2024-03-22T06:01:28;13.40;;;12.37;;
16393;SDS011;8306;51.128;4.476;2024-03-22T06:03:54;14.50;;;13.40;;
16393;SDS011;8306;51.128;4.476;2024-03-22T06:06:21;13.20;;;12.20;;
16393;SDS011;8306;51.128;4.476;2024-03-22T06:08:53;14.00;;;12.90;;
16393;SDS011;8306;51.128;4.476;2024-03-22T06:11:19;12.87;;;11.87;;
16393;SDS011;8306;51.128;4.476;2024-03-22T06:13:46;13.17;;;12.07;;
16393;SDS011;8306;51.128;4.476;2024-03-22T06:16:12;13.67;;;12.57;;
16393;SDS011;8306;51.128;4.476;2024-03-22T06:18:39;13.27;;;12.17;;
16393;SDS011;8306;51.128;4.476;2024-03-22T06:21:05;12.70;;;11.80;;
16393;SDS011;8306;51.128;4.476;2024-03-22T06:23:32;12.57;;;11.57;;
16393;SDS011;8306;51.128;4.476;2024-03-22T06:25:58;12.43;;;11.53;;
16393;SDS011;8306;51.128;4.476;2024-03-22T06:28:26;13.00;;;11.80;;
16393;SDS011;8306;51.128;4.476;2024-03-22T06:30:51;13.67;;;12.67;;
16393;SDS011;8306;51.128;4.476;2024-03-22T06:33:18;11.87;;;11.03;;
16393;SDS011;8306;51.128;4.476;2024-03-22T06:35:44;11.90;;;10.90;;
16393;SDS011;8306;51.128;4.476;2024-03-22T06:38:11;10.87;;;10.03;;
16393;SDS011;8306;51.128;4.476;2024-03-22T06:40:37;11.77;;;10.70;;
16393;SDS011;8306;51.128;4.476;2024-03-22T06:43:04;10.50;;;9.80;;
16393;SDS011;8306;51.128;4.476;2024-03-22T06:45:30;11.10;;;10.20;;
16393;SDS011;8306;51.128;4.476;2024-03-22T06:47:56;11.67;;;10.77;;
16393;SDS011;8306;51.128;4.476;2024-03-22T06:50:23;10.53;;;9.83;;
16393;SDS011;8306;51.128;4.476;2024-03-22T06:52:50;9.93;;;9.03;;
16393;SDS011;8306;51.128;4.476;2024-03-22T06:55:16;9.57;;;8.87;;
16393;SDS011;8306;51.128;4.476;2024-03-22T06:57:43;10.47;;;9.63;;
16393;SDS011;8306;51.128;4.476;2024-03-22T07:00:09;10.27;;;9.57;;
16393;SDS011;8306;51.128;4.476;2024-03-22T07:02:36;9.87;;;8.97;;
16393;SDS011;8306;51.128;4.476;2024-03-22T07:05:02;9.93;;;9.23;;
16393;SDS011;8306;51.128;4.476;2024-03-22T07:07:28;9.07;;;8.37;;
16393;SDS011;8306;51.128;4.476;2024-03-22T07:09:56;8.53;;;7.93;;
16393;SDS011;8306;51.128;4.476;2024-03-22T07:12:21;8.47;;;7.87;;
16393;SDS011;8306;51.128;4.476;2024-03-22T07:14:48;9.13;;;8.43;;
16393;SDS011;8306;51.128;4.476;2024-03-22T07:17:14;8.63;;;8.03;;
16393;SDS011;8306;51.128;4.476;2024-03-22T07:19:41;8.90;;;8.20;;
16393;SDS011;8306;51.128;4.476;2024-03-22T07:22:07;8.60;;;8.00;;
16393;SDS011;8306;51.128;4.476;2024-03-22T07:24:34;9.23;;;8.57;;
16393;SDS011;8306;51.128;4.476;2024-03-22T07:27:00;9.70;;;9.03;;
16393;SDS011;8306;51.128;4.476;2024-03-22T07:29:27;10.03;;;9.33;;
16393;SDS011;8306;51.128;4.476;2024-03-22T07:31:53;10.33;;;9.03;;
16393;SDS011;8306;51.128;4.476;2024-03-22T07:34:20;9.97;;;9.27;;
16393;SDS011;8306;51.128;4.476;2024-03-22T07:36:46;10.33;;;9.53;;
16393;SDS011;8306;51.128;4.476;2024-03-22T07:39:13;9.27;;;8.67;;
16393;SDS011;8306;51.128;4.476;2024-03-22T07:41:39;8.70;;;8.10;;
16393;SDS011;8306;51.128;4.476;2024-03-22T07:44:06;7.80;;;7.30;;
16393;SDS011;8306;51.128;4.476;2024-03-22T07:46:32;8.23;;;7.63;;
16393;SDS011;8306;51.128;4.476;2024-03-22T07:48:59;7.70;;;7.20;;
16393;SDS011;8306;51.128;4.476;2024-03-22T07:51:25;7.07;;;6.50;;
16393;SDS011;8306;51.128;4.476;2024-03-22T07:53:52;6.90;;;6.30;;
16393;SDS011;8306;51.128;4.476;2024-03-22T07:56:18;7.17;;;6.60;;
16393;SDS011;8306;51.128;4.476;2024-03-22T07:58:45;6.20;;;5.70;;
16393;SDS011;8306;51.128;4.476;2024-03-22T08:01:11;6.60;;;6.10;;
16393;SDS011;8306;51.128;4.476;2024-03-22T08:03:37;6.60;;;5.97;;
16393;SDS011;8306;51.128;4.476;2024-03-22T08:06:04;6.10;;;5.50;;
16393;SDS011;8306;51.128;4.476;2024-03-22T08:08:31;6.50;;;6.00;;
16393;SDS011;8306;51.128;4.476;2024-03-22T08:10:57;5.90;;;5.40;;
16393;SDS011;8306;51.128;4.476;2024-03-22T08:13:23;6.20;;;5.70;;
16393;SDS011;8306;51.128;4.476;2024-03-22T08:15:50;5.83;;;5.43;;
16393;SDS011;8306;51.128;4.476;2024-03-22T08:18:16;6.10;;;5.60;;
16393;SDS011;8306;51.128;4.476;2024-03-22T08:20:43;5.60;;;5.20;;
16393;SDS011;8306;51.128;4.476;2024-03-22T08:23:09;6.23;;;5.63;;
16393;SDS011;8306;51.128;4.476;2024-03-22T08:25:36;5.63;;;5.23;;
16393;SDS011;8306;51.128;4.476;2024-03-22T08:28:02;6.23;;;5.70;;
16393;SDS011;8306;51.128;4.476;2024-03-22T08:30:29;5.83;;;5.33;;
16393;SDS011;8306;51.128;4.476;2024-03-22T08:32:55;5.93;;;5.43;;
16393;SDS011;8306;51.128;4.476;2024-03-22T08:35:22;5.90;;;5.50;;
16393;SDS011;8306;51.128;4.476;2024-03-22T08:37:48;6.27;;;5.67;;
16393;SDS011;8306;51.128;4.476;2024-03-22T08:40:15;6.03;;;5.53;;
16393;SDS011;8306;51.128;4.476;2024-03-22T08:42:41;5.97;;;5.50;;
16393;SDS011;8306;51.128;4.476;2024-03-22T08:45:08;6.17;;;5.57;;
16393;SDS011;8306;51.128;4.476;2024-03-22T08:47:34;6.30;;;5.70;;
16393;SDS011;8306;51.128;4.476;2024-03-22T08:50:01;5.93;;;5.43;;
16393;SDS011;8306;51.128;4.476;2024-03-22T08:52:27;5.80;;;5.37;;
16393;SDS011;8306;51.128;4.476;2024-03-22T08:54:54;6.10;;;5.60;;
16393;SDS011;8306;51.128;4.476;2024-03-22T08:57:20;5.40;;;5.00;;
16393;SDS011;8306;51.128;4.476;2024-03-22T08:59:47;5.93;;;5.43;;
16393;SDS011;8306;51.128;4.476;2024-03-22T09:02:13;5.90;;;5.43;;
16393;SDS011;8306;51.128;4.476;2024-03-22T09:04:40;5.63;;;5.23;;
16393;SDS011;8306;51.128;4.476;2024-03-22T09:07:06;6.10;;;5.50;;
16393;SDS011;8306;51.128;4.476;2024-03-22T09:09:33;5.90;;;5.40;;
16393;SDS011;8306;51.128;4.476;2024-03-22T09:11:59;5.47;;;5.07;;
16393;SDS011;8306;51.128;4.476;2024-03-22T09:14:26;5.60;;;5.20;;
16393;SDS011;8306;51.128;4.476;2024-03-22T09:16:52;5.90;;;5.40;;
16393;SDS011;8306;51.128;4.476;2024-03-22T09:19:19;5.60;;;5.10;;
16393;SDS011;8306;51.128;4.476;2024-03-22T09:21:45;5.70;;;5.30;;
16393;SDS011;8306;51.128;4.476;2024-03-22T09:24:12;6.50;;;5.43;;
16393;SDS011;8306;51.128;4.476;2024-03-22T09:26:38;6.17;;;5.57;;
16393;SDS011;8306;51.128;4.476;2024-03-22T09:29:05;6.37;;;5.40;;
16393;SDS011;8306;51.128;4.476;2024-03-22T09:31:31;5.40;;;5.00;;
16393;SDS011;8306;51.128;4.476;2024-03-22T09:33:58;6.30;;;5.70;;
16393;SDS011;8306;51.128;4.476;2024-03-22T09:36:24;5.87;;;5.33;;
16393;SDS011;8306;51.128;4.476;2024-03-22T09:38:51;5.77;;;5.20;;
16393;SDS011;8306;51.128;4.476;2024-03-22T09:41:23;6.50;;;5.90;;
16393;SDS011;8306;51.128;4.476;2024-03-22T09:43:44;5.83;;;5.40;;
16393;SDS011;8306;51.128;4.476;2024-03-22T09:46:10;6.13;;;5.63;;
16393;SDS011;8306;51.128;4.476;2024-03-22T09:48:36;6.80;;;5.03;;
16393;SDS011;8306;51.128;4.476;2024-03-22T09:51:03;6.43;;;5.70;;
16393;SDS011;8306;51.128;4.476;2024-03-22T09:53:29;6.13;;;5.63;;
16393;SDS011;8306;51.128;4.476;2024-03-22T09:55:56;6.50;;;5.70;;
16393;SDS011;8306;51.128;4.476;2024-03-22T09:58:22;7.33;;;5.60;;
16393;SDS011;8306;51.128;4.476;2024-03-22T10:00:49;6.30;;;5.63;;
16393;SDS011;8306;51.128;4.476;2024-03-22T10:03:15;6.33;;;5.73;;
16393;SDS011;8306;51.128;4.476;2024-03-22T10:05:42;6.00;;;5.50;;
16393;SDS011;8306;51.128;4.476;2024-03-22T10:08:08;7.27;;;6.60;;
16393;SDS011;8306;51.128;4.476;2024-03-22T10:10:35;6.17;;;5.67;;
16393;SDS011;8306;51.128;4.476;2024-03-22T10:13:02;6.60;;;5.93;;
16393;SDS011;8306;51.128;4.476;2024-03-22T10:15:28;8.10;;;5.87;;
16393;SDS011;8306;51.128;4.476;2024-03-22T10:17:56;6.03;;;5.53;;
16393;SDS011;8306;51.128;4.476;2024-03-22T10:20:21;7.30;;;6.60;;
16393;SDS011;8306;51.128;4.476;2024-03-22T10:25:22;7.03;;;6.33;;
16393;SDS011;8306;51.128;4.476;2024-03-22T10:27:49;6.00;;;5.50;;
16393;SDS011;8306;51.128;4.476;2024-03-22T10:30:16;7.53;;;5.90;;
16393;SDS011;8306;51.128;4.476;2024-03-22T10:32:44;5.80;;;5.40;;
16393;SDS011;8306;51.128;4.476;2024-03-22T10:35:11;5.63;;;5.13;;
16393;SDS011;8306;51.128;4.476;2024-03-22T10:37:37;6.33;;;5.73;;
16393;SDS011;8306;51.128;4.476;2024-03-22T10:40:04;6.27;;;5.67;;
16393;SDS011;8306;51.128;4.476;2024-03-22T10:42:34;6.30;;;5.70;;
16393;SDS011;8306;51.128;4.476;2024-03-22T10:45:00;7.97;;;5.83;;
16393;SDS011;8306;51.128;4.476;2024-03-22T10:47:27;7.03;;;5.93;;
16393;SDS011;8306;51.128;4.476;2024-03-22T10:49:53;6.30;;;5.70;;
16393;SDS011;8306;51.128;4.476;2024-03-22T10:52:19;6.10;;;5.50;;
16393;SDS011;8306;51.128;4.476;2024-03-22T10:54:46;11.20;;;5.90;;
16393;SDS011;8306;51.128;4.476;2024-03-22T10:57:13;7.33;;;5.73;;
16393;SDS011;8306;51.128;4.476;2024-03-22T10:59:40;9.33;;;6.30;;
16393;SDS011;8306;51.128;4.476;2024-03-22T11:02:05;7.50;;;5.90;;
16393;SDS011;8306;51.128;4.476;2024-03-22T11:04:32;9.27;;;5.77;;
16393;SDS011;8306;51.128;4.476;2024-03-22T11:06:58;6.37;;;5.40;;
16393;SDS011;8306;51.128;4.476;2024-03-22T11:09:27;6.17;;;5.17;;
16393;SDS011;8306;51.128;4.476;2024-03-22T11:11:54;7.17;;;5.80;;
16393;SDS011;8306;51.128;4.476;2024-03-22T11:14:20;6.67;;;5.97;;
16393;SDS011;8306;51.128;4.476;2024-03-22T11:16:47;8.00;;;5.67;;
16393;SDS011;8306;51.128;4.476;2024-03-22T11:19:13;6.70;;;6.00;;
16393;SDS011;8306;51.128;4.476;2024-03-22T11:21:40;6.47;;;5.83;;
16393;SDS011;8306;51.128;4.476;2024-03-22T11:24:06;7.17;;;5.83;;
16393;SDS011;8306;51.128;4.476;2024-03-22T11:26:33;6.80;;;5.73;;
16393;SDS011;8306;51.128;4.476;2024-03-22T11:28:59;6.90;;;5.73;;
16393;SDS011;8306;51.128;4.476;2024-03-22T11:31:28;7.37;;;5.90;;
16393;SDS011;8306;51.128;4.476;2024-03-22T11:33:55;6.43;;;5.87;;
16393;SDS011;8306;51.128;4.476;2024-03-22T11:36:19;8.30;;;5.70;;
16393;SDS011;8306;51.128;4.476;2024-03-22T11:38:45;6.73;;;5.80;;
16393;SDS011;8306;51.128;4.476;2024-03-22T11:41:12;8.43;;;6.23;;
16393;SDS011;8306;51.128;4.476;2024-03-22T11:43:38;6.87;;;5.60;;
16393;SDS011;8306;51.128;4.476;2024-03-22T11:46:04;7.97;;;6.20;;
16393;SDS011;8306;51.128;4.476;2024-03-22T11:48:31;6.20;;;5.60;;
16393;SDS011;8306;51.128;4.476;2024-03-22T11:50:57;7.67;;;5.93;;
16393;SDS011;8306;51.128;4.476;2024-03-22T11:53:24;9.17;;;5.77;;
16393;SDS011;8306;51.128;4.476;2024-03-22T11:55:50;7.20;;;6.07;;
16393;SDS011;8306;51.128;4.476;2024-03-22T11:58:18;9.87;;;6.10;;
16393;SDS011;8306;51.128;4.476;2024-03-22T12:00:43;6.30;;;5.70;;
16393;SDS011;8306;51.128;4.476;2024-03-22T12:03:10;6.90;;;5.60;;
16393;SDS011;8306;51.128;4.476;2024-03-22T12:05:36;8.53;;;6.43;;
16393;SDS011;8306;51.128;4.476;2024-03-22T12:08:03;6.90;;;5.70;;
16393;SDS011;8306;51.128;4.476;2024-03-22T12:10:29;9.13;;;5.50;;
16393;SDS011;8306;51.128;4.476;2024-03-22T12:12:56;7.60;;;6.90;;
16393;SDS011;8306;51.128;4.476;2024-03-22T12:15:22;6.80;;;6.10;;
16393;SDS011;8306;51.128;4.476;2024-03-22T12:17:49;7.20;;;5.37;;
16393;SDS011;8306;51.128;4.476;2024-03-22T12:20:15;7.03;;;6.17;;
16393;SDS011;8306;51.128;4.476;2024-03-22T12:22:42;10.27;;;6.17;;
16393;SDS011;8306;51.128;4.476;2024-03-22T12:25:08;8.73;;;5.43;;
16393;SDS011;8306;51.128;4.476;2024-03-22T12:27:35;8.07;;;5.90;;
16393;SDS011;8306;51.128;4.476;2024-03-22T12:30:01;8.07;;;5.90;;
16393;SDS011;8306;51.128;4.476;2024-03-22T12:32:28;6.20;;;5.60;;
16393;SDS011;8306;51.128;4.476;2024-03-22T12:34:54;8.13;;;5.67;;
16393;SDS011;8306;51.128;4.476;2024-03-22T12:37:21;9.03;;;6.10;;
16393;SDS011;8306;51.128;4.476;2024-03-22T12:39:47;7.03;;;5.47;;
16393;SDS011;8306;51.128;4.476;2024-03-22T12:42:14;7.07;;;6.37;;
16393;SDS011;8306;51.128;4.476;2024-03-22T12:44:40;7.67;;;5.60;;
16393;SDS011;8306;51.128;4.476;2024-03-22T12:47:07;6.67;;;5.43;;
16393;SDS011;8306;51.128;4.476;2024-03-22T12:49:33;6.97;;;5.50;;
16393;SDS011;8306;51.128;4.476;2024-03-22T12:52:00;6.77;;;6.07;;
16393;SDS011;8306;51.128;4.476;2024-03-22T12:54:26;8.17;;;5.63;;
16393;SDS011;8306;51.128;4.476;2024-03-22T12:56:53;10.80;;;6.07;;
16393;SDS011;8306;51.128;4.476;2024-03-22T12:59:19;8.47;;;5.80;;
16393;SDS011;8306;51.128;4.476;2024-03-22T13:01:46;8.50;;;5.80;;
16393;SDS011;8306;51.128;4.476;2024-03-22T13:04:12;7.00;;;5.63;;
16393;SDS011;8306;51.128;4.476;2024-03-22T13:06:39;6.63;;;5.57;;
16393;SDS011;8306;51.128;4.476;2024-03-22T13:09:05;5.97;;;5.40;;
16393;SDS011;8306;51.128;4.476;2024-03-22T13:11:32;7.33;;;5.47;;
16393;SDS011;8306;51.128;4.476;2024-03-22T13:13:58;8.63;;;6.27;;
16393;SDS011;8306;51.128;4.476;2024-03-22T13:16:25;6.87;;;6.17;;
16393;SDS011;8306;51.128;4.476;2024-03-22T13:18:51;7.40;;;6.57;;
16393;SDS011;8306;51.128;4.476;2024-03-22T13:21:18;8.67;;;6.57;;
16393;SDS011;8306;51.128;4.476;2024-03-22T13:23:44;8.47;;;6.10;;
16393;SDS011;8306;51.128;4.476;2024-03-22T13:26:11;9.27;;;6.77;;
16393;SDS011;8306;51.128;4.476;2024-03-22T13:28:37;7.10;;;6.43;;
16393;SDS011;8306;51.128;4.476;2024-03-22T13:31:04;7.10;;;6.30;;
16393;SDS011;8306;51.128;4.476;2024-03-22T13:33:30;8.70;;;7.37;;
16393;SDS011;8306;51.128;4.476;2024-03-22T13:35:56;11.23;;;7.03;;
16393;SDS011;8306;51.128;4.476;2024-03-22T13:38:23;7.30;;;6.70;;
16393;SDS011;8306;51.128;4.476;2024-03-22T13:40:53;7.27;;;6.77;;
16393;SDS011;8306;51.128;4.476;2024-03-22T13:43:22;8.43;;;7.50;;
16393;SDS011;8306;51.128;4.476;2024-03-22T13:45:51;10.70;;;8.20;;
16393;SDS011;8306;51.128;4.476;2024-03-22T13:48:21;8.57;;;7.90;;
16393;SDS011;8306;51.128;4.476;2024-03-22T13:50:47;8.20;;;7.50;;
16393;SDS011;8306;51.128;4.476;2024-03-22T13:53:13;7.47;;;6.87;;
16393;SDS011;8306;51.128;4.476;2024-03-22T13:55:40;8.57;;;7.67;;
16393;SDS011;8306;51.128;4.476;2024-03-22T13:58:06;9.63;;;8.47;;
16393;SDS011;8306;51.128;4.476;2024-03-22T14:00:33;8.53;;;7.37;;
16393;SDS011;8306;51.128;4.476;2024-03-22T14:02:59;8.60;;;7.80;;
16393;SDS011;8306;51.128;4.476;2024-03-22T14:05:26;9.37;;;8.47;;
16393;SDS011;8306;51.128;4.476;2024-03-22T14:07:52;9.43;;;8.53;;
16393;SDS011;8306;51.128;4.476;2024-03-22T14:10:19;8.63;;;7.93;;
16393;SDS011;8306;51.128;4.476;2024-03-22T14:12:45;8.40;;;7.80;;
16393;SDS011;8306;51.128;4.476;2024-03-22T14:15:12;10.40;;;8.77;;
16393;SDS011;8306;51.128;4.476;2024-03-22T14:17:38;8.93;;;8.23;;
16393;SDS011;8306;51.128;4.476;2024-03-22T14:20:05;9.63;;;8.87;;
16393;SDS011;8306;51.128;4.476;2024-03-22T14:22:31;8.93;;;8.13;;
16393;SDS011;8306;51.128;4.476;2024-03-22T14:24:58;8.93;;;8.23;;
16393;SDS011;8306;51.128;4.476;2024-03-22T14:27:24;9.00;;;8.30;;
16393;SDS011;8306;51.128;4.476;2024-03-22T14:29:51;8.20;;;7.70;;
16393;SDS011;8306;51.128;4.476;2024-03-22T14:32:17;8.00;;;7.43;;
16393;SDS011;8306;51.128;4.476;2024-03-22T14:34:44;9.37;;;8.60;;
16393;SDS011;8306;51.128;4.476;2024-03-22T14:37:10;8.37;;;7.80;;
16393;SDS011;8306;51.128;4.476;2024-03-22T14:39:37;8.70;;;8.03;;
16393;SDS011;8306;51.128;4.476;2024-03-22T14:42:03;7.93;;;7.43;;
16393;SDS011;8306;51.128;4.476;2024-03-22T14:44:30;8.63;;;7.93;;
16393;SDS011;8306;51.128;4.476;2024-03-22T14:46:56;8.07;;;7.47;;